Flight Track Log - Related Links

Times and Time Zones

All times are in EDT time to prevent confusion due to time zone crossing. See the N42GJ flight status page for this flight to view local times or setup timezone preferences in your user account.

Time Position Orientation Groundspeed Altitude Reporting Facility
EDT Latitude Longitude Course Direction KTS MPH feet Rate Location/Type
Sat 11:23:00 AM 41.1713 -72.7191 303° West  Level FlightAware Approximate
Sat 11:24:00 AM 41.2092 -72.7980 303° West  Level FlightAware Approximate
Sat 11:25:00 AM 41.2470 -72.8770 303° West  Level FlightAware Approximate
Sat 11:26:00 AM 41.2523 -72.9695 272° West  Level FlightAware Approximate
Sat 11:27:00 AM 41.2548 -73.0631 272° West  Level FlightAware Approximate
Sat 11:28:00 AM 41.2571 -73.1567 272° West  Level FlightAware Approximate
Sat 11:29:00 AM 41.2594 -73.2504 272° West  Level FlightAware Approximate
Sat 11:30:00 AM 41.2617 -73.3440 272° West  Level FlightAware Approximate
Sat 11:31:00 AM 41.2638 -73.4377 272° West  Level FlightAware Approximate
Sat 11:32:00 AM 41.2659 -73.5313 272° West  Level FlightAware Approximate
Sat 11:33:00 AM 41.2637 -73.6248 266° West  Level FlightAware Approximate
Sat 11:34:00 AM 41.2588 -73.7183 266° West  Level FlightAware Approximate
Sat 11:35:00 AM 41.2538 -73.8117 266° West  Level FlightAware Approximate
Sat 11:36:00 AM 41.2448 -73.9041 252° West  Level FlightAware Approximate
Sat 11:37:00 AM 41.2333 -73.9953 270° West  Level FlightAware Approximate
Sat 11:38:00 AM 41.2311 -74.0887 262° West  Level FlightAware Approximate
Sat 11:39:00 AM 41.2219 -74.1815 262° West  Level FlightAware Approximate
Sat 11:40:00 AM 41.2087 -74.2733 255° West  Level FlightAware Approximate
Sat 11:41:00 AM 41.1771 -74.3548 231° Southwest  Level FlightAware Approximate
Sat 11:42:00 AM 41.1315 -74.4259 227° Southwest  Level FlightAware Approximate
Sat 11:43:00 AM 41.0831 -74.4938 227° Southwest  Level FlightAware Approximate
Sat 11:44:00 AM 41.0336 -74.5223 166° South  Level FlightAware Approximate
Sat 11:45:00 AM 40.9700 -74.4850 159° South  Level FlightAware Approximate
Sat 11:46:00 AM 40.9020 -74.4677 159° South  Level FlightAware Approximate
Sat 11:47:00 AM 40.8475 -74.4257 163° South  Level FlightAware Approximate
Sat 11:48:00 AM 40.7993 -74.4149 163° South  Level Estimated
Sat 11:49:00 AM 40.7993 -74.4149 163° South  Level Estimated
Sat 11:50:00 AM 40.7993 -74.4149 163° South  Level Estimated
Sat 11:51:00 AM 40.7993 -74.4149 163° South  Level Estimated
Sat 11:52:00 AM 40.7993 -74.4149 163° South  Level Estimated
Sat 11:53:00 AM 40.7993 -74.4149 163° South  Level Estimated
Sat 11:54:00 AM 40.7993 -74.4149 163° South  Level Estimated
Sat 11:55:00 AM 40.7993 -74.4149 163° South  Level Estimated
Sat 11:56:00 AM 40.7993 -74.4149 163° South  Level Estimated
Sat 11:57:00 AM 40.7993 -74.4149 163° South  Level Estimated
Sat 11:58:00 AM 40.7993 -74.4149 163° South  Level Estimated
Sat 11:59:00 AM 40.7993 -74.4149 163° South  Level Estimated
Sat 12:00:00 PM 40.7993 -74.4149 163° South  Level Estimated
Sat 12:01:00 PM 40.7993 -74.4149 163° South  Level Estimated
Sat 12:02:00 PM 40.7993 -74.4149 163° South  Level Estimated
Sat 12:03:00 PM 40.7993 -74.4149 163° South  Level Estimated
Sat 12:04:00 PM 40.7993 -74.4149 163° South  Level Estimated

Login

Don't have an account? Register now (free) for customized features, flight alerts, and more!